| time (UTC) | temp F | wind direction | speed MPH | gust MPH | rain 1hr in | rain 24hr in | rain mn in | humidity % | barometer mb |
| 20260903013036 | 91 | 164 | 1.0 | 7.0 | 0.00 | 0.02 | 0.02 | 50 | 1008.5 |
| 20260903011550 | 91 | 175 | 0.0 | 3.0 | 0.00 | 0.02 | 0.02 | 51 | 1008.3 |
| 20260903010049 | 91 | 169 | 1.0 | 8.0 | 0.00 | 0.02 | 0.02 | 52 | 1008.2 |
| 20260903004535 | 92 | 138 | 1.0 | 6.0 | 0.00 | 0.02 | 0.02 | 52 | 1008.2 |
| 20260903003036 | 92 | 146 | 0.0 | 8.0 | 0.00 | 0.02 | 0.02 | 54 | 1008.0 |
| 20260903001541 | 91 | 78 | 0.0 | 2.0 | 0.00 | 0.02 | 0.02 | 57 | 1008.0 |
| 20260903000034 | 89 | 110 | 0.0 | 0.0 | 0.02 | 0.02 | 0.02 | 60 | 1007.9 |
| 20260902234534 | 87 | 145 | 0.0 | 0.0 | 0.02 | 0.02 | 0.02 | 67 | 1008.1 |
| 20260902233033 | 86 | 145 | 0.0 | 0.0 | 0.02 | 0.02 | 0.02 | 74 | 1008.0 |
| 20260902231542 | 88 | 145 | 0.0 | 0.0 | 0.02 | 0.02 | 0.02 | 67 | 1008.2 |
| 20260902230031 | 95 | 116 | 1.0 | 16.0 | 0.00 | 0.00 | 0.00 | 52 | 1008.4 |
| 20260902224529 | 98 | 65 | 0.0 | 3.0 | 0.00 | 0.00 | 0.00 | 42 | 1007.7 |
| 20260902223037 | 99 | 163 | 1.0 | 7.0 | 0.00 | 0.00 | 0.00 | 40 | 1007.7 |
| 20260902221530 | 99 | 168 | 0.0 | 7.0 | 0.00 | 0.00 | 0.00 | 41 | 1007.6 |
| 20260902220034 | 98 | 106 | 0.0 | 6.0 | 0.00 | 0.00 | 0.00 | 40 | 1007.8 |
| 20260902214527 | 100 | 111 | 0.0 | 2.0 | 0.00 | 0.00 | 0.00 | 39 | 1007.9 |
| 20260902213026 | 101 | 121 | 0.0 | 4.0 | 0.00 | 0.00 | 0.00 | 40 | 1008.1 |
| 20260902211521 | 100 | 88 | 0.0 | 8.0 | 0.00 | 0.00 | 0.00 | 40 | 1008.3 |
| 20260902210019 | 99 | 68 | 0.0 | 7.0 | 0.00 | 0.00 | 0.00 | 41 | 1008.4 |
| 20260902204519 | 99 | 279 | 0.0 | 3.0 | 0.00 | 0.00 | 0.00 | 41 | 1008.6 |
| 20260902203015 | 99 | 148 | 1.0 | 6.0 | 0.00 | 0.00 | 0.00 | 42 | 1008.8 |
| 20260902201512 | 98 | 148 | 0.0 | 4.0 | 0.00 | 0.00 | 0.00 | 42 | 1008.9 |
| 20260902200011 | 98 | 144 | 1.0 | 8.0 | 0.00 | 0.00 | 0.00 | 41 | 1009.3 |
| 20260902194517 | 98 | 5 | 0.0 | 4.0 | 0.00 | 0.00 | 0.00 | 42 | 1009.6 |
| 20260902193003 | 97 | 129 | 0.0 | 4.0 | 0.00 | 0.00 | 0.00 | 42 | 1009.8 |
| 20260902191605 | 97 | 153 | 2.0 | 11.0 | 0.00 | 0.00 | 0.00 | 43 | 1010.1 |
| 20260902190100 | 96 | 113 | 0.0 | 8.0 | 0.00 | 0.00 | 0.00 | 46 | 1010.1 |
| 20260902184554 | 96 | 151 | 0.0 | 6.0 | 0.00 | 0.00 | 0.00 | 46 | 1010.6 |
| 20260902183052 | 95 | 170 | 1.0 | 7.0 | 0.00 | 0.00 | 0.00 | 46 | 1010.7 |
| 20260902181548 | 94 | 159 | 0.0 | 6.0 | 0.00 | 0.00 | 0.00 | 49 | 1011.1 |
| 20260902180044 | 94 | 130 | 0.0 | 6.0 | 0.00 | 0.00 | 0.00 | 51 | 1011.5 |
| 20260902174543 | 93 | 150 | 0.0 | 7.0 | 0.00 | 0.00 | 0.00 | 51 | 1011.8 |
| 20260902173038 | 93 | 136 | 0.0 | 8.0 | 0.00 | 0.00 | 0.00 | 53 | 1011.9 |
| 20260902171536 | 92 | 88 | 0.0 | 5.0 | 0.00 | 0.00 | 0.00 | 51 | 1012.3 |
| 20260902170034 | 92 | 53 | 0.0 | 7.0 | 0.00 | 0.00 | 0.00 | 53 | 1012.5 |
| 20260902164534 | 92 | 60 | 0.0 | 2.0 | 0.00 | 0.00 | 0.00 | 56 | 1012.8 |
| 20260902163031 | 92 | 135 | 0.0 | 1.0 | 0.00 | 0.00 | 0.00 | 56 | 1012.7 |
| 20260902161536 | 91 | 174 | 0.0 | 6.0 | 0.00 | 0.00 | 0.00 | 57 | 1012.8 |
| 20260902160026 | 90 | 150 | 0.0 | 0.0 | 0.00 | 0.00 | 0.00 | 59 | 1012.8 |
| 20260902154524 | 90 | 162 | 0.0 | 1.0 | 0.00 | 0.00 | 0.00 | 61 | 1012.9 |
| 20260902153020 | 88 | 162 | 0.0 | 0.0 | 0.00 | 0.00 | 0.00 | 63 | 1012.9 |
| 20260902151525 | 87 | 162 | 0.0 | 1.0 | 0.00 | 0.00 | 0.00 | 65 | 1012.9 |
| 20260902150014 | 87 | 157 | 0.0 | 3.0 | 0.00 | 0.00 | 0.00 | 67 | 1012.8 |
| 20260902144512 | 86 | 157 | 0.0 | 0.0 | 0.00 | 0.00 | 0.00 | 69 | 1012.7 |
| 20260902143011 | 85 | 142 | 0.0 | 1.0 | 0.00 | 0.00 | 0.00 | 70 | 1012.7 |
| 20260902141511 | 83 | 119 | 0.0 | 0.0 | 0.00 | 0.00 | 0.00 | 74 | 1012.7 |
| 20260902140014 | 82 | 119 | 0.0 | 0.0 | 0.00 | 0.00 | 0.00 | 75 | 1012.7 |
| 20260902134520 | 81 | 119 | 0.0 | 1.0 | 0.00 | 0.00 | 0.00 | 76 | 1012.6 |
| 20260902133011 | 81 | 135 | 0.0 | 1.0 | 0.00 | 0.00 | 0.00 | 76 | 1012.5 |
| 20260902131508 | 80 | 140 | 0.0 | 5.0 | 0.00 | 0.00 | 0.00 | 75 | 1012.7 |
| 20260902130006 | 80 | 142 | 0.0 | 7.0 | 0.00 | 0.00 | 0.00 | 75 | 1012.5 |
| 20260902124503 | 0 | 0.0 | 0.0 | 0.00 | 0.00 | 0.00 | 1012.3 | ||
| 20260902123103 | 0 | 0.0 | 0.0 | 0.00 | 0.00 | 0.00 | 1012.2 | ||
| 20260902121554 | 0 | 0.0 | 0.0 | 0.00 | 0.00 | 0.00 | 1012.0 | ||
| 20260902120050 | 0 | 0.0 | 0.0 | 0.00 | 0.00 | 0.00 | 1012.0 | ||
| 20260902114547 | 79 | 132 | 0.0 | 0.0 | 0.00 | 0.00 | 0.00 | 76 | 1012.1 |
| 20260902113050 | 79 | 132 | 0.0 | 0.0 | 0.00 | 0.00 | 0.00 | 76 | 1012.2 |
| 20260902111542 | 79 | 132 | 0.0 | 0.0 | 0.00 | 0.00 | 0.00 | 75 | 1012.2 |
| 20260902110043 | 80 | 132 | 0.0 | 0.0 | 0.00 | 0.00 | 0.00 | 74 | 1012.1 |
| 20260902104603 | 80 | 132 | 0.0 | 0.0 | 0.00 | 0.00 | 0.00 | 74 | 1012.0 |
| 20260902103039 | 80 | 132 | 0.0 | 0.0 | 0.00 | 0.00 | 0.00 | 74 | 1012.0 |
| 20260902101537 | 80 | 132 | 0.0 | 0.0 | 0.00 | 0.00 | 0.00 | 74 | 1012.1 |
| 20260902100049 | 80 | 132 | 0.0 | 0.0 | 0.00 | 0.00 | 0.00 | 73 | 1012.0 |
| 20260902094535 | 81 | 132 | 0.0 | 0.0 | 0.00 | 0.00 | 0.00 | 72 | 1011.9 |
| 20260902093035 | 81 | 132 | 0.0 | 0.0 | 0.00 | 0.00 | 0.00 | 72 | 1011.9 |
| 20260902091531 | 81 | 132 | 0.0 | 0.0 | 0.00 | 0.00 | 0.00 | 71 | 1011.9 |
| 20260902090030 | 82 | 132 | 0.0 | 0.0 | 0.00 | 0.00 | 0.00 | 70 | 1011.8 |
| 20260902084528 | 82 | 132 | 0.0 | 0.0 | 0.00 | 0.00 | 0.00 | 69 | 1011.6 |
| 20260902083027 | 82 | 132 | 0.0 | 0.0 | 0.00 | 0.00 | 0.00 | 69 | 1011.7 |
| 20260902081525 | 83 | 132 | 0.0 | 0.0 | 0.00 | 0.00 | 0.00 | 68 | 1011.6 |
| 20260902080024 | 83 | 132 | 0.0 | 0.0 | 0.00 | 0.00 | 0.00 | 67 | 1011.9 |
| 20260902074522 | 83 | 132 | 0.0 | 4.0 | 0.00 | 0.00 | 0.00 | 66 | 1011.8 |
| 20260902073022 | 84 | 136 | 0.0 | 0.0 | 0.00 | 0.00 | 0.00 | 65 | 1011.7 |
| 20260902071530 | 84 | 136 | 0.0 | 0.0 | 0.00 | 0.00 | 0.00 | 65 | 1011.8 |
| 20260902070018 | 84 | 136 | 0.0 | 4.0 | 0.00 | 0.00 | 0.00 | 64 | 1011.8 |
| 20260902064517 | 85 | 120 | 0.0 | 4.0 | 0.00 | 0.00 | 0.00 | 64 | 1011.7 |
| 20260902063019 | 85 | 126 | 0.0 | 7.0 | 0.00 | 0.00 | 0.00 | 64 | 1011.6 |
| 20260902061514 | 85 | 151 | 0.0 | 5.0 | 0.00 | 0.00 | 0.00 | 65 | 1011.7 |
| 20260902060015 | 85 | 137 | 0.0 | 4.0 | 0.00 | 0.00 | 0.00 | 66 | 1011.7 |
| 20260902054513 | 86 | 122 | 0.0 | 7.0 | 0.00 | 0.00 | 0.00 | 65 | 1011.7 |
| 20260902053010 | 86 | 138 | 0.0 | 2.0 | 0.00 | 0.00 | 0.00 | 65 | 1011.6 |
| 20260902051509 | 86 | 142 | 1.0 | 7.0 | 0.00 | 0.00 | 0.00 | 64 | 1011.7 |
| 20260902050008 | 87 | 154 | 0.0 | 2.0 | 0.00 | 0.00 | 0.00 | 63 | 1011.7 |
| 20260902044508 | 87 | 127 | 0.0 | 3.0 | 0.00 | 0.00 | 0.00 | 62 | 1011.7 |
| 20260902043004 | 88 | 192 | 0.0 | 7.0 | 0.00 | 0.00 | 0.00 | 60 | 1011.6 |
| 20260902041504 | 89 | 136 | 0.0 | 7.0 | 0.00 | 0.00 | 0.00 | 58 | 1011.5 |
| 20260902040003 | 89 | 135 | 3.0 | 10.0 | 0.00 | 0.00 | 0.00 | 54 | 1011.2 |
| 20260902034503 | 90 | 132 | 0.0 | 0.0 | 0.00 | 0.00 | 0.00 | 53 | 1011.1 |
| 20260902033002 | 91 | 132 | 0.0 | 0.0 | 0.00 | 0.00 | 0.00 | 53 | 1010.9 |
| 20260902031501 | 91 | 132 | 0.0 | 0.0 | 0.00 | 0.00 | 0.00 | 51 | 1010.9 |
| 20260902030001 | 91 | 132 | 0.0 | 0.0 | 0.00 | 0.00 | 0.00 | 51 | 1010.6 |
| 20260902024613 | 92 | 132 | 0.0 | 0.0 | 0.00 | 0.00 | 0.00 | 50 | 1010.4 |
| 20260902024501 | 92 | 132 | 0.0 | 0.0 | 0.00 | 0.00 | 0.00 | 50 | 1010.4 |
| 20260902023101 | 92 | 132 | 0.0 | 0.0 | 0.00 | 0.00 | 0.00 | 50 | 1010.2 |
| 20260902021559 | 92 | 132 | 0.0 | 0.0 | 0.00 | 0.00 | 0.00 | 50 | 1010.0 |
| 20260902020131 | 92 | 132 | 0.0 | 1.0 | 0.00 | 0.00 | 0.00 | 49 | 1009.9 |
| 20260902014602 | 93 | 132 | 0.0 | 4.0 | 0.00 | 0.00 | 0.00 | 48 | 1009.5 |